sensor_id;sensor_type;location;lat;lon;timestamp;P1;durP1;ratioP1;P2;durP2;ratioP2
12703;SDS011;6416;52.182;7.650;2023-04-15T00:01:12;4.43;;;3.33;;
12703;SDS011;6416;52.182;7.650;2023-04-15T00:03:37;4.27;;;3.17;;
12703;SDS011;6416;52.182;7.650;2023-04-15T00:06:03;3.97;;;3.57;;
12703;SDS011;6416;52.182;7.650;2023-04-15T00:08:28;5.13;;;3.40;;
12703;SDS011;6416;52.182;7.650;2023-04-15T00:10:54;5.60;;;3.47;;
12703;SDS011;6416;52.182;7.650;2023-04-15T00:13:19;3.53;;;3.23;;
12703;SDS011;6416;52.182;7.650;2023-04-15T00:15:45;3.43;;;3.17;;
12703;SDS011;6416;52.182;7.650;2023-04-15T00:18:10;3.50;;;3.07;;
12703;SDS011;6416;52.182;7.650;2023-04-15T00:20:36;3.63;;;3.30;;
12703;SDS011;6416;52.182;7.650;2023-04-15T00:23:01;3.90;;;3.10;;
12703;SDS011;6416;52.182;7.650;2023-04-15T00:25:27;3.63;;;3.30;;
12703;SDS011;6416;52.182;7.650;2023-04-15T00:27:52;3.60;;;3.30;;
12703;SDS011;6416;52.182;7.650;2023-04-15T00:30:18;4.13;;;3.73;;
12703;SDS011;6416;52.182;7.650;2023-04-15T00:32:43;3.80;;;3.50;;
12703;SDS011;6416;52.182;7.650;2023-04-15T00:35:09;3.90;;;3.60;;
12703;SDS011;6416;52.182;7.650;2023-04-15T00:37:34;3.60;;;3.30;;
12703;SDS011;6416;52.182;7.650;2023-04-15T00:40:00;3.30;;;2.97;;
12703;SDS011;6416;52.182;7.650;2023-04-15T00:42:25;4.40;;;3.50;;
12703;SDS011;6416;52.182;7.650;2023-04-15T00:44:52;4.27;;;3.17;;
12703;SDS011;6416;52.182;7.650;2023-04-15T00:47:17;4.23;;;3.10;;
12703;SDS011;6416;52.182;7.650;2023-04-15T00:49:43;3.03;;;2.77;;
12703;SDS011;6416;52.182;7.650;2023-04-15T00:52:08;3.20;;;2.90;;
12703;SDS011;6416;52.182;7.650;2023-04-15T00:54:34;3.40;;;3.10;;
12703;SDS011;6416;52.182;7.650;2023-04-15T00:57:00;3.27;;;2.97;;
12703;SDS011;6416;52.182;7.650;2023-04-15T00:59:25;3.30;;;3.03;;
12703;SDS011;6416;52.182;7.650;2023-04-15T01:01:51;3.63;;;3.10;;
12703;SDS011;6416;52.182;7.650;2023-04-15T01:04:17;3.23;;;2.93;;
12703;SDS011;6416;52.182;7.650;2023-04-15T01:06:43;4.13;;;3.53;;
12703;SDS011;6416;52.182;7.650;2023-04-15T01:09:08;3.50;;;3.20;;
12703;SDS011;6416;52.182;7.650;2023-04-15T01:11:33;3.10;;;2.90;;
12703;SDS011;6416;52.182;7.650;2023-04-15T01:13:59;3.40;;;3.10;;
12703;SDS011;6416;52.182;7.650;2023-04-15T01:16:25;3.33;;;3.03;;
12703;SDS011;6416;52.182;7.650;2023-04-15T01:18:51;2.90;;;2.70;;
12703;SDS011;6416;52.182;7.650;2023-04-15T01:21:17;3.03;;;2.73;;
12703;SDS011;6416;52.182;7.650;2023-04-15T01:23:42;3.40;;;3.10;;
12703;SDS011;6416;52.182;7.650;2023-04-15T01:26:10;4.00;;;3.70;;
12703;SDS011;6416;52.182;7.650;2023-04-15T01:28:36;3.57;;;3.27;;
12703;SDS011;6416;52.182;7.650;2023-04-15T01:31:08;3.90;;;3.33;;
12703;SDS011;6416;52.182;7.650;2023-04-15T01:33:41;4.13;;;3.33;;
12703;SDS011;6416;52.182;7.650;2023-04-15T01:36:07;3.37;;;3.07;;
12703;SDS011;6416;52.182;7.650;2023-04-15T01:38:33;3.40;;;3.10;;
12703;SDS011;6416;52.182;7.650;2023-04-15T01:40:59;3.80;;;3.50;;
12703;SDS011;6416;52.182;7.650;2023-04-15T01:43:25;3.67;;;3.37;;
12703;SDS011;6416;52.182;7.650;2023-04-15T01:45:51;3.57;;;3.27;;
12703;SDS011;6416;52.182;7.650;2023-04-15T01:48:16;4.10;;;3.70;;
12703;SDS011;6416;52.182;7.650;2023-04-15T01:50:42;4.00;;;3.17;;
12703;SDS011;6416;52.182;7.650;2023-04-15T01:53:08;3.93;;;3.63;;
12703;SDS011;6416;52.182;7.650;2023-04-15T01:55:33;3.57;;;3.27;;
12703;SDS011;6416;52.182;7.650;2023-04-15T01:57:59;3.90;;;3.60;;
12703;SDS011;6416;52.182;7.650;2023-04-15T02:00:24;4.37;;;3.63;;
12703;SDS011;6416;52.182;7.650;2023-04-15T02:02:50;3.53;;;3.23;;
12703;SDS011;6416;52.182;7.650;2023-04-15T02:05:15;3.67;;;3.37;;
12703;SDS011;6416;52.182;7.650;2023-04-15T02:07:41;4.07;;;3.67;;
12703;SDS011;6416;52.182;7.650;2023-04-15T02:10:07;3.87;;;3.57;;
12703;SDS011;6416;52.182;7.650;2023-04-15T02:12:33;3.83;;;3.53;;
12703;SDS011;6416;52.182;7.650;2023-04-15T02:14:58;4.73;;;3.70;;
12703;SDS011;6416;52.182;7.650;2023-04-15T02:17:24;3.67;;;3.37;;
12703;SDS011;6416;52.182;7.650;2023-04-15T02:19:49;3.60;;;3.30;;
12703;SDS011;6416;52.182;7.650;2023-04-15T02:22:14;3.70;;;3.40;;
12703;SDS011;6416;52.182;7.650;2023-04-15T02:24:40;4.20;;;3.90;;
12703;SDS011;6416;52.182;7.650;2023-04-15T02:27:05;3.67;;;3.37;;
12703;SDS011;6416;52.182;7.650;2023-04-15T02:29:31;3.63;;;3.33;;
12703;SDS011;6416;52.182;7.650;2023-04-15T02:31:56;3.57;;;3.27;;
12703;SDS011;6416;52.182;7.650;2023-04-15T02:34:22;3.73;;;3.43;;
12703;SDS011;6416;52.182;7.650;2023-04-15T02:36:47;3.63;;;3.27;;
12703;SDS011;6416;52.182;7.650;2023-04-15T02:39:13;4.10;;;3.80;;
12703;SDS011;6416;52.182;7.650;2023-04-15T02:41:38;3.93;;;3.63;;
12703;SDS011;6416;52.182;7.650;2023-04-15T02:44:04;4.03;;;3.70;;
12703;SDS011;6416;52.182;7.650;2023-04-15T02:46:29;3.80;;;3.50;;
12703;SDS011;6416;52.182;7.650;2023-04-15T02:48:55;4.53;;;3.73;;
12703;SDS011;6416;52.182;7.650;2023-04-15T02:51:20;3.63;;;3.33;;
12703;SDS011;6416;52.182;7.650;2023-04-15T02:53:46;4.13;;;3.83;;
12703;SDS011;6416;52.182;7.650;2023-04-15T02:56:12;4.73;;;4.03;;
12703;SDS011;6416;52.182;7.650;2023-04-15T02:58:38;3.97;;;3.57;;
12703;SDS011;6416;52.182;7.650;2023-04-15T03:01:04;4.23;;;3.57;;
12703;SDS011;6416;52.182;7.650;2023-04-15T03:03:29;4.57;;;4.17;;
12703;SDS011;6416;52.182;7.650;2023-04-15T03:05:55;4.20;;;3.80;;
12703;SDS011;6416;52.182;7.650;2023-04-15T03:08:20;4.50;;;4.10;;
12703;SDS011;6416;52.182;7.650;2023-04-15T03:10:46;5.10;;;3.77;;
12703;SDS011;6416;52.182;7.650;2023-04-15T03:13:12;3.70;;;3.40;;
12703;SDS011;6416;52.182;7.650;2023-04-15T03:15:37;4.83;;;3.80;;
12703;SDS011;6416;52.182;7.650;2023-04-15T03:18:03;4.23;;;3.93;;
12703;SDS011;6416;52.182;7.650;2023-04-15T03:20:28;5.97;;;4.50;;
12703;SDS011;6416;52.182;7.650;2023-04-15T03:22:54;4.37;;;3.97;;
12703;SDS011;6416;52.182;7.650;2023-04-15T03:25:19;4.93;;;3.93;;
12703;SDS011;6416;52.182;7.650;2023-04-15T03:27:44;5.47;;;4.60;;
12703;SDS011;6416;52.182;7.650;2023-04-15T03:30:10;4.97;;;4.57;;
12703;SDS011;6416;52.182;7.650;2023-04-15T03:32:36;4.87;;;4.13;;
12703;SDS011;6416;52.182;7.650;2023-04-15T03:35:01;5.77;;;4.17;;
12703;SDS011;6416;52.182;7.650;2023-04-15T03:37:27;4.80;;;4.27;;
12703;SDS011;6416;52.182;7.650;2023-04-15T03:39:53;4.37;;;3.97;;
12703;SDS011;6416;52.182;7.650;2023-04-15T03:42:18;4.67;;;4.00;;
12703;SDS011;6416;52.182;7.650;2023-04-15T03:44:44;4.70;;;4.30;;
12703;SDS011;6416;52.182;7.650;2023-04-15T03:47:09;5.17;;;4.63;;
12703;SDS011;6416;52.182;7.650;2023-04-15T03:49:35;4.77;;;4.30;;
12703;SDS011;6416;52.182;7.650;2023-04-15T03:52:00;4.43;;;4.10;;
12703;SDS011;6416;52.182;7.650;2023-04-15T03:54:26;4.83;;;4.10;;
12703;SDS011;6416;52.182;7.650;2023-04-15T03:56:51;4.93;;;4.53;;
12703;SDS011;6416;52.182;7.650;2023-04-15T03:59:16;4.30;;;3.90;;
12703;SDS011;6416;52.182;7.650;2023-04-15T04:01:42;7.00;;;4.37;;
12703;SDS011;6416;52.182;7.650;2023-04-15T04:04:07;4.30;;;3.90;;
12703;SDS011;6416;52.182;7.650;2023-04-15T04:06:33;4.53;;;4.13;;
12703;SDS011;6416;52.182;7.650;2023-04-15T04:08:58;5.67;;;4.53;;
12703;SDS011;6416;52.182;7.650;2023-04-15T04:11:24;4.43;;;4.03;;
12703;SDS011;6416;52.182;7.650;2023-04-15T04:13:49;4.60;;;4.20;;
12703;SDS011;6416;52.182;7.650;2023-04-15T04:16:15;4.83;;;4.00;;
12703;SDS011;6416;52.182;7.650;2023-04-15T04:18:40;4.33;;;3.93;;
12703;SDS011;6416;52.182;7.650;2023-04-15T04:21:06;6.87;;;3.77;;
12703;SDS011;6416;52.182;7.650;2023-04-15T04:23:31;5.43;;;3.87;;
12703;SDS011;6416;52.182;7.650;2023-04-15T04:25:57;4.10;;;3.80;;
12703;SDS011;6416;52.182;7.650;2023-04-15T04:28:22;4.13;;;3.63;;
12703;SDS011;6416;52.182;7.650;2023-04-15T04:30:48;4.20;;;3.80;;
12703;SDS011;6416;52.182;7.650;2023-04-15T04:33:13;4.00;;;3.70;;
12703;SDS011;6416;52.182;7.650;2023-04-15T04:35:39;3.93;;;3.63;;
12703;SDS011;6416;52.182;7.650;2023-04-15T04:38:04;3.83;;;3.53;;
12703;SDS011;6416;52.182;7.650;2023-04-15T04:40:30;4.03;;;3.73;;
12703;SDS011;6416;52.182;7.650;2023-04-15T04:42:55;4.23;;;3.93;;
12703;SDS011;6416;52.182;7.650;2023-04-15T04:45:21;4.20;;;3.90;;
12703;SDS011;6416;52.182;7.650;2023-04-15T04:47:46;4.47;;;4.07;;
12703;SDS011;6416;52.182;7.650;2023-04-15T04:50:12;4.70;;;4.33;;
12703;SDS011;6416;52.182;7.650;2023-04-15T04:52:37;5.13;;;4.70;;
12703;SDS011;6416;52.182;7.650;2023-04-15T04:55:03;5.93;;;5.43;;
12703;SDS011;6416;52.182;7.650;2023-04-15T04:57:29;5.70;;;5.00;;
12703;SDS011;6416;52.182;7.650;2023-04-15T04:59:54;5.63;;;5.20;;
12703;SDS011;6416;52.182;7.650;2023-04-15T05:02:20;5.67;;;5.07;;
12703;SDS011;6416;52.182;7.650;2023-04-15T05:04:45;5.37;;;4.90;;
12703;SDS011;6416;52.182;7.650;2023-04-15T05:07:11;5.53;;;5.03;;
12703;SDS011;6416;52.182;7.650;2023-04-15T05:09:36;5.13;;;4.73;;
12703;SDS011;6416;52.182;7.650;2023-04-15T05:12:02;4.60;;;4.20;;
12703;SDS011;6416;52.182;7.650;2023-04-15T05:14:28;4.77;;;4.37;;
12703;SDS011;6416;52.182;7.650;2023-04-15T05:16:54;5.47;;;4.97;;
12703;SDS011;6416;52.182;7.650;2023-04-15T05:19:19;5.53;;;5.03;;
12703;SDS011;6416;52.182;7.650;2023-04-15T05:21:45;6.13;;;5.03;;
12703;SDS011;6416;52.182;7.650;2023-04-15T05:24:10;7.07;;;5.47;;
12703;SDS011;6416;52.182;7.650;2023-04-15T05:26:36;5.73;;;5.17;;
12703;SDS011;6416;52.182;7.650;2023-04-15T05:29:01;5.90;;;4.83;;
12703;SDS011;6416;52.182;7.650;2023-04-15T05:31:27;6.73;;;5.07;;
12703;SDS011;6416;52.182;7.650;2023-04-15T05:33:52;5.57;;;5.07;;
12703;SDS011;6416;52.182;7.650;2023-04-15T05:36:18;5.70;;;5.20;;
12703;SDS011;6416;52.182;7.650;2023-04-15T05:38:43;5.53;;;5.03;;
12703;SDS011;6416;52.182;7.650;2023-04-15T05:41:09;5.07;;;4.67;;
12703;SDS011;6416;52.182;7.650;2023-04-15T05:43:34;6.07;;;5.53;;
12703;SDS011;6416;52.182;7.650;2023-04-15T05:45:59;6.00;;;5.40;;
12703;SDS011;6416;52.182;7.650;2023-04-15T05:48:25;6.73;;;6.13;;
12703;SDS011;6416;52.182;7.650;2023-04-15T05:50:50;7.20;;;6.50;;
12703;SDS011;6416;52.182;7.650;2023-04-15T05:53:16;6.77;;;6.17;;
12703;SDS011;6416;52.182;7.650;2023-04-15T05:55:41;6.50;;;5.90;;
12703;SDS011;6416;52.182;7.650;2023-04-15T05:58:07;6.13;;;5.63;;
12703;SDS011;6416;52.182;7.650;2023-04-15T06:00:32;7.67;;;7.00;;
12703;SDS011;6416;52.182;7.650;2023-04-15T06:02:58;7.07;;;6.40;;
12703;SDS011;6416;52.182;7.650;2023-04-15T06:05:23;7.37;;;6.67;;
12703;SDS011;6416;52.182;7.650;2023-04-15T06:07:49;7.97;;;7.27;;
12703;SDS011;6416;52.182;7.650;2023-04-15T06:10:14;8.70;;;7.63;;
12703;SDS011;6416;52.182;7.650;2023-04-15T06:12:40;7.93;;;7.23;;
12703;SDS011;6416;52.182;7.650;2023-04-15T06:15:05;7.37;;;6.67;;
12703;SDS011;6416;52.182;7.650;2023-04-15T06:17:31;7.70;;;7.00;;
12703;SDS011;6416;52.182;7.650;2023-04-15T06:19:57;8.37;;;7.57;;
12703;SDS011;6416;52.182;7.650;2023-04-15T06:22:22;8.10;;;7.40;;
12703;SDS011;6416;52.182;7.650;2023-04-15T06:24:48;9.03;;;7.60;;
12703;SDS011;6416;52.182;7.650;2023-04-15T06:27:14;7.67;;;6.97;;
12703;SDS011;6416;52.182;7.650;2023-04-15T06:29:40;7.77;;;7.07;;
12703;SDS011;6416;52.182;7.650;2023-04-15T06:32:05;8.40;;;7.60;;
12703;SDS011;6416;52.182;7.650;2023-04-15T06:34:31;7.77;;;7.03;;
12703;SDS011;6416;52.182;7.650;2023-04-15T06:36:56;7.70;;;7.00;;
12703;SDS011;6416;52.182;7.650;2023-04-15T06:39:22;8.03;;;7.33;;
12703;SDS011;6416;52.182;7.650;2023-04-15T06:41:47;7.97;;;7.27;;
12703;SDS011;6416;52.182;7.650;2023-04-15T06:44:13;7.90;;;7.17;;
12703;SDS011;6416;52.182;7.650;2023-04-15T06:46:39;7.70;;;7.00;;
12703;SDS011;6416;52.182;7.650;2023-04-15T06:49:05;7.90;;;7.20;;
12703;SDS011;6416;52.182;7.650;2023-04-15T06:51:30;7.90;;;7.20;;
12703;SDS011;6416;52.182;7.650;2023-04-15T06:53:56;7.53;;;6.83;;
12703;SDS011;6416;52.182;7.650;2023-04-15T06:56:21;7.90;;;7.10;;
12703;SDS011;6416;52.182;7.650;2023-04-15T06:58:46;7.87;;;7.17;;
12703;SDS011;6416;52.182;7.650;2023-04-15T07:01:12;7.47;;;6.80;;
12703;SDS011;6416;52.182;7.650;2023-04-15T07:03:37;7.80;;;7.10;;
12703;SDS011;6416;52.182;7.650;2023-04-15T07:06:03;7.87;;;7.17;;
12703;SDS011;6416;52.182;7.650;2023-04-15T07:08:28;8.07;;;6.83;;
12703;SDS011;6416;52.182;7.650;2023-04-15T07:10:54;7.77;;;7.07;;
12703;SDS011;6416;52.182;7.650;2023-04-15T07:13:19;7.90;;;7.20;;
12703;SDS011;6416;52.182;7.650;2023-04-15T07:15:45;7.57;;;6.83;;
12703;SDS011;6416;52.182;7.650;2023-04-15T07:18:10;8.20;;;7.40;;
12703;SDS011;6416;52.182;7.650;2023-04-15T07:20:37;7.73;;;7.03;;
12703;SDS011;6416;52.182;7.650;2023-04-15T07:23:03;7.67;;;6.97;;
12703;SDS011;6416;52.182;7.650;2023-04-15T07:25:29;8.13;;;7.43;;
12703;SDS011;6416;52.182;7.650;2023-04-15T07:27:54;7.70;;;6.87;;
12703;SDS011;6416;52.182;7.650;2023-04-15T07:30:20;7.93;;;7.20;;
12703;SDS011;6416;52.182;7.650;2023-04-15T07:32:45;8.63;;;7.83;;
12703;SDS011;6416;52.182;7.650;2023-04-15T07:35:11;7.93;;;7.23;;
12703;SDS011;6416;52.182;7.650;2023-04-15T07:37:36;7.93;;;7.23;;
12703;SDS011;6416;52.182;7.650;2023-04-15T07:40:02;7.97;;;7.27;;
12703;SDS011;6416;52.182;7.650;2023-04-15T07:42:27;7.93;;;7.23;;
12703;SDS011;6416;52.182;7.650;2023-04-15T07:44:53;7.27;;;6.67;;
12703;SDS011;6416;52.182;7.650;2023-04-15T07:47:18;7.53;;;6.73;;
12703;SDS011;6416;52.182;7.650;2023-04-15T07:49:44;7.73;;;7.03;;
12703;SDS011;6416;52.182;7.650;2023-04-15T07:52:09;8.73;;;7.27;;
12703;SDS011;6416;52.182;7.650;2023-04-15T07:54:35;7.50;;;6.80;;
12703;SDS011;6416;52.182;7.650;2023-04-15T07:57:00;6.93;;;6.33;;
12703;SDS011;6416;52.182;7.650;2023-04-15T07:59:26;6.97;;;6.37;;
12703;SDS011;6416;52.182;7.650;2023-04-15T08:01:51;6.93;;;6.33;;
12703;SDS011;6416;52.182;7.650;2023-04-15T08:04:17;7.63;;;6.80;;
12703;SDS011;6416;52.182;7.650;2023-04-15T08:06:42;8.07;;;7.03;;
12703;SDS011;6416;52.182;7.650;2023-04-15T08:09:08;7.13;;;6.53;;
12703;SDS011;6416;52.182;7.650;2023-04-15T08:11:33;7.43;;;6.57;;
12703;SDS011;6416;52.182;7.650;2023-04-15T08:13:59;7.20;;;6.60;;
12703;SDS011;6416;52.182;7.650;2023-04-15T08:16:25;7.40;;;6.67;;
12703;SDS011;6416;52.182;7.650;2023-04-15T08:18:51;6.67;;;6.07;;
12703;SDS011;6416;52.182;7.650;2023-04-15T08:21:18;6.83;;;6.23;;
12703;SDS011;6416;52.182;7.650;2023-04-15T08:23:47;6.47;;;5.87;;
12703;SDS011;6416;52.182;7.650;2023-04-15T08:26:13;7.23;;;6.47;;
12703;SDS011;6416;52.182;7.650;2023-04-15T08:28:39;7.40;;;6.70;;
12703;SDS011;6416;52.182;7.650;2023-04-15T08:31:05;7.20;;;6.50;;
12703;SDS011;6416;52.182;7.650;2023-04-15T08:33:31;7.23;;;6.53;;
12703;SDS011;6416;52.182;7.650;2023-04-15T08:35:56;7.80;;;6.83;;
12703;SDS011;6416;52.182;7.650;2023-04-15T08:38:22;8.30;;;7.50;;
12703;SDS011;6416;52.182;7.650;2023-04-15T08:40:47;7.30;;;6.60;;
12703;SDS011;6416;52.182;7.650;2023-04-15T08:43:20;7.00;;;6.40;;
12703;SDS011;6416;52.182;7.650;2023-04-15T08:45:46;6.73;;;6.13;;
12703;SDS011;6416;52.182;7.650;2023-04-15T08:48:14;8.63;;;6.27;;
12703;SDS011;6416;52.182;7.650;2023-04-15T08:50:40;6.13;;;5.63;;
12703;SDS011;6416;52.182;7.650;2023-04-15T08:53:08;6.73;;;6.07;;
12703;SDS011;6416;52.182;7.650;2023-04-15T08:55:35;5.77;;;5.23;;
12703;SDS011;6416;52.182;7.650;2023-04-15T08:58:03;6.00;;;5.50;;
12703;SDS011;6416;52.182;7.650;2023-04-15T09:00:30;5.90;;;5.40;;
12703;SDS011;6416;52.182;7.650;2023-04-15T09:02:57;6.67;;;5.67;;
12703;SDS011;6416;52.182;7.650;2023-04-15T09:05:23;5.67;;;5.17;;
12703;SDS011;6416;52.182;7.650;2023-04-15T09:07:51;8.03;;;6.10;;
12703;SDS011;6416;52.182;7.650;2023-04-15T09:10:17;5.93;;;5.33;;
12703;SDS011;6416;52.182;7.650;2023-04-15T09:12:42;5.60;;;5.17;;
12703;SDS011;6416;52.182;7.650;2023-04-15T09:15:11;5.93;;;5.43;;
12703;SDS011;6416;52.182;7.650;2023-04-15T12:47:57;2.50;;;2.30;;
12703;SDS011;6416;52.182;7.650;2023-04-15T12:50:22;2.47;;;2.27;;
12703;SDS011;6416;52.182;7.650;2023-04-15T12:52:51;2.93;;;2.10;;
12703;SDS011;6416;52.182;7.650;2023-04-15T12:55:16;2.17;;;1.97;;
12703;SDS011;6416;52.182;7.650;2023-04-15T12:57:42;2.37;;;2.17;;
12703;SDS011;6416;52.182;7.650;2023-04-15T13:00:07;2.10;;;1.90;;
12703;SDS011;6416;52.182;7.650;2023-04-15T13:02:33;2.20;;;2.00;;
12703;SDS011;6416;52.182;7.650;2023-04-15T13:04:58;2.27;;;1.70;;
12703;SDS011;6416;52.182;7.650;2023-04-15T13:07:24;2.10;;;1.90;;
12703;SDS011;6416;52.182;7.650;2023-04-15T13:09:49;2.30;;;2.20;;
12703;SDS011;6416;52.182;7.650;2023-04-15T13:12:15;2.63;;;2.10;;
12703;SDS011;6416;52.182;7.650;2023-04-15T13:14:40;2.07;;;1.87;;
12703;SDS011;6416;52.182;7.650;2023-04-15T13:17:06;1.93;;;1.83;;
12703;SDS011;6416;52.182;7.650;2023-04-15T13:19:31;2.30;;;2.10;;
12703;SDS011;6416;52.182;7.650;2023-04-15T13:21:57;1.90;;;1.80;;
12703;SDS011;6416;52.182;7.650;2023-04-15T13:24:22;2.17;;;1.90;;
12703;SDS011;6416;52.182;7.650;2023-04-15T13:26:48;2.00;;;1.90;;
12703;SDS011;6416;52.182;7.650;2023-04-15T13:29:13;1.87;;;1.70;;
12703;SDS011;6416;52.182;7.650;2023-04-15T13:31:39;1.93;;;1.83;;
12703;SDS011;6416;52.182;7.650;2023-04-15T13:34:04;2.17;;;1.93;;
12703;SDS011;6416;52.182;7.650;2023-04-15T13:36:30;2.03;;;1.87;;
12703;SDS011;6416;52.182;7.650;2023-04-15T13:38:55;1.80;;;1.70;;
12703;SDS011;6416;52.182;7.650;2023-04-15T13:41:21;1.60;;;1.50;;
12703;SDS011;6416;52.182;7.650;2023-04-15T13:43:46;1.60;;;1.50;;
12703;SDS011;6416;52.182;7.650;2023-04-15T13:46:11;1.60;;;1.50;;
12703;SDS011;6416;52.182;7.650;2023-04-15T13:48:37;1.53;;;1.43;;
12703;SDS011;6416;52.182;7.650;2023-04-15T13:51:02;2.03;;;1.83;;
12703;SDS011;6416;52.182;7.650;2023-04-15T13:53:28;2.20;;;2.00;;
12703;SDS011;6416;52.182;7.650;2023-04-15T13:55:53;2.10;;;1.93;;
12703;SDS011;6416;52.182;7.650;2023-04-15T13:58:19;2.00;;;1.80;;
12703;SDS011;6416;52.182;7.650;2023-04-15T14:00:44;1.57;;;1.47;;
12703;SDS011;6416;52.182;7.650;2023-04-15T14:03:10;2.40;;;1.50;;
12703;SDS011;6416;52.182;7.650;2023-04-15T14:05:36;1.50;;;1.40;;
12703;SDS011;6416;52.182;7.650;2023-04-15T14:08:01;1.10;;;1.10;;
12703;SDS011;6416;52.182;7.650;2023-04-15T14:10:27;2.00;;;1.40;;
12703;SDS011;6416;52.182;7.650;2023-04-15T14:12:52;1.10;;;1.10;;
12703;SDS011;6416;52.182;7.650;2023-04-15T14:15:18;1.70;;;1.40;;
12703;SDS011;6416;52.182;7.650;2023-04-15T14:17:43;1.40;;;1.30;;
12703;SDS011;6416;52.182;7.650;2023-04-15T14:20:09;1.43;;;1.33;;
12703;SDS011;6416;52.182;7.650;2023-04-15T14:22:34;1.67;;;1.57;;
12703;SDS011;6416;52.182;7.650;2023-04-15T14:25:00;1.50;;;1.40;;
12703;SDS011;6416;52.182;7.650;2023-04-15T14:27:25;1.60;;;1.30;;
12703;SDS011;6416;52.182;7.650;2023-04-15T14:29:51;1.50;;;1.40;;
12703;SDS011;6416;52.182;7.650;2023-04-15T14:32:16;1.50;;;1.40;;
12703;SDS011;6416;52.182;7.650;2023-04-15T14:34:42;1.60;;;1.40;;
12703;SDS011;6416;52.182;7.650;2023-04-15T14:37:07;1.57;;;1.33;;
12703;SDS011;6416;52.182;7.650;2023-04-15T14:39:33;1.40;;;1.30;;
12703;SDS011;6416;52.182;7.650;2023-04-15T14:41:58;1.50;;;1.40;;
12703;SDS011;6416;52.182;7.650;2023-04-15T14:44:24;3.73;;;3.00;;
12703;SDS011;6416;52.182;7.650;2023-04-15T14:46:49;1.90;;;1.80;;
12703;SDS011;6416;52.182;7.650;2023-04-15T14:49:15;2.63;;;2.43;;
12703;SDS011;6416;52.182;7.650;2023-04-15T14:51:41;2.50;;;2.30;;
12703;SDS011;6416;52.182;7.650;2023-04-15T14:54:06;4.00;;;3.23;;
12703;SDS011;6416;52.182;7.650;2023-04-15T14:56:32;3.77;;;3.47;;
12703;SDS011;6416;52.182;7.650;2023-04-15T14:58:57;2.17;;;1.93;;
12703;SDS011;6416;52.182;7.650;2023-04-15T15:01:23;2.53;;;2.33;;
12703;SDS011;6416;52.182;7.650;2023-04-15T15:03:48;2.47;;;2.27;;
12703;SDS011;6416;52.182;7.650;2023-04-15T15:06:14;2.63;;;2.43;;
12703;SDS011;6416;52.182;7.650;2023-04-15T15:08:39;2.20;;;2.00;;
12703;SDS011;6416;52.182;7.650;2023-04-15T15:11:05;2.10;;;1.90;;
12703;SDS011;6416;52.182;7.650;2023-04-15T15:13:30;2.43;;;1.80;;
12703;SDS011;6416;52.182;7.650;2023-04-15T15:15:56;2.50;;;2.00;;
12703;SDS011;6416;52.182;7.650;2023-04-15T15:18:21;4.20;;;3.80;;
12703;SDS011;6416;52.182;7.650;2023-04-15T15:20:47;3.87;;;2.60;;
12703;SDS011;6416;52.182;7.650;2023-04-15T15:23:12;2.67;;;2.40;;
12703;SDS011;6416;52.182;7.650;2023-04-15T15:25:38;3.73;;;2.10;;
12703;SDS011;6416;52.182;7.650;2023-04-15T15:28:04;3.50;;;1.93;;
12703;SDS011;6416;52.182;7.650;2023-04-15T15:30:29;2.90;;;2.10;;
12703;SDS011;6416;52.182;7.650;2023-04-15T15:32:55;3.10;;;2.10;;
12703;SDS011;6416;52.182;7.650;2023-04-15T15:35:20;2.43;;;2.23;;
12703;SDS011;6416;52.182;7.650;2023-04-15T15:37:46;2.57;;;2.20;;
12703;SDS011;6416;52.182;7.650;2023-04-15T15:40:11;3.43;;;2.10;;
12703;SDS011;6416;52.182;7.650;2023-04-15T15:42:37;2.83;;;1.80;;
12703;SDS011;6416;52.182;7.650;2023-04-15T15:45:02;2.80;;;2.60;;
12703;SDS011;6416;52.182;7.650;2023-04-15T15:47:28;3.07;;;2.77;;
12703;SDS011;6416;52.182;7.650;2023-04-15T15:49:54;2.57;;;2.33;;
12703;SDS011;6416;52.182;7.650;2023-04-15T15:52:19;2.73;;;2.37;;
12703;SDS011;6416;52.182;7.650;2023-04-15T15:54:45;4.63;;;2.70;;
12703;SDS011;6416;52.182;7.650;2023-04-15T15:57:10;4.03;;;2.43;;
12703;SDS011;6416;52.182;7.650;2023-04-15T15:59:36;5.47;;;3.00;;
12703;SDS011;6416;52.182;7.650;2023-04-15T16:02:01;4.13;;;3.13;;
12703;SDS011;6416;52.182;7.650;2023-04-15T16:04:27;5.70;;;3.97;;
12703;SDS011;6416;52.182;7.650;2023-04-15T16:06:52;3.73;;;2.87;;
12703;SDS011;6416;52.182;7.650;2023-04-15T16:09:18;4.13;;;3.07;;
12703;SDS011;6416;52.182;7.650;2023-04-15T16:11:43;3.60;;;2.90;;
12703;SDS011;6416;52.182;7.650;2023-04-15T16:14:09;3.10;;;2.43;;
12703;SDS011;6416;52.182;7.650;2023-04-15T16:16:35;4.27;;;3.00;;
12703;SDS011;6416;52.182;7.650;2023-04-15T16:19:00;3.80;;;2.93;;
12703;SDS011;6416;52.182;7.650;2023-04-15T16:21:26;3.63;;;2.83;;
12703;SDS011;6416;52.182;7.650;2023-04-15T16:23:52;5.13;;;3.13;;
12703;SDS011;6416;52.182;7.650;2023-04-15T16:26:17;4.53;;;3.30;;
12703;SDS011;6416;52.182;7.650;2023-04-15T16:28:43;3.57;;;2.73;;
12703;SDS011;6416;52.182;7.650;2023-04-15T16:31:11;4.97;;;3.43;;
12703;SDS011;6416;52.182;7.650;2023-04-15T16:33:37;4.33;;;2.93;;
12703;SDS011;6416;52.182;7.650;2023-04-15T16:36:03;4.20;;;2.60;;
12703;SDS011;6416;52.182;7.650;2023-04-15T16:38:29;3.53;;;2.83;;
12703;SDS011;6416;52.182;7.650;2023-04-15T16:40:56;3.33;;;2.80;;
12703;SDS011;6416;52.182;7.650;2023-04-15T16:43:24;3.47;;;2.80;;
12703;SDS011;6416;52.182;7.650;2023-04-15T16:45:49;3.33;;;2.70;;
12703;SDS011;6416;52.182;7.650;2023-04-15T16:48:15;3.30;;;2.73;;
12703;SDS011;6416;52.182;7.650;2023-04-15T16:50:41;3.90;;;2.93;;
12703;SDS011;6416;52.182;7.650;2023-04-15T16:53:07;3.27;;;2.83;;
12703;SDS011;6416;52.182;7.650;2023-04-15T16:55:32;3.83;;;2.97;;
12703;SDS011;6416;52.182;7.650;2023-04-15T16:57:58;4.27;;;3.07;;
12703;SDS011;6416;52.182;7.650;2023-04-15T17:00:23;3.67;;;3.20;;
12703;SDS011;6416;52.182;7.650;2023-04-15T17:02:49;4.53;;;3.27;;
12703;SDS011;6416;52.182;7.650;2023-04-15T17:05:18;3.37;;;3.07;;
12703;SDS011;6416;52.182;7.650;2023-04-15T17:07:44;5.47;;;3.57;;
12703;SDS011;6416;52.182;7.650;2023-04-15T17:10:09;4.90;;;3.70;;
12703;SDS011;6416;52.182;7.650;2023-04-15T17:12:35;4.47;;;3.67;;
12703;SDS011;6416;52.182;7.650;2023-04-15T17:15:00;5.17;;;3.97;;
12703;SDS011;6416;52.182;7.650;2023-04-15T17:17:25;4.90;;;3.87;;
12703;SDS011;6416;52.182;7.650;2023-04-15T17:19:51;4.80;;;3.43;;
12703;SDS011;6416;52.182;7.650;2023-04-15T17:22:16;5.57;;;4.20;;
12703;SDS011;6416;52.182;7.650;2023-04-15T17:24:42;5.13;;;3.87;;
12703;SDS011;6416;52.182;7.650;2023-04-15T17:27:07;5.47;;;3.80;;
12703;SDS011;6416;52.182;7.650;2023-04-15T17:29:33;4.57;;;3.90;;
12703;SDS011;6416;52.182;7.650;2023-04-15T17:31:59;5.90;;;3.80;;
12703;SDS011;6416;52.182;7.650;2023-04-15T17:34:27;5.07;;;3.97;;
12703;SDS011;6416;52.182;7.650;2023-04-15T17:36:53;7.87;;;6.00;;
12703;SDS011;6416;52.182;7.650;2023-04-15T17:39:18;6.60;;;4.70;;
12703;SDS011;6416;52.182;7.650;2023-04-15T17:41:44;5.53;;;4.20;;
12703;SDS011;6416;52.182;7.650;2023-04-15T17:44:09;4.93;;;4.10;;
12703;SDS011;6416;52.182;7.650;2023-04-15T17:46:35;5.60;;;4.03;;
12703;SDS011;6416;52.182;7.650;2023-04-15T17:49:00;5.77;;;4.23;;
12703;SDS011;6416;52.182;7.650;2023-04-15T17:51:26;6.00;;;3.97;;
12703;SDS011;6416;52.182;7.650;2023-04-15T17:53:51;4.43;;;3.83;;
12703;SDS011;6416;52.182;7.650;2023-04-15T17:56:17;4.20;;;3.80;;
12703;SDS011;6416;52.182;7.650;2023-04-15T17:58:42;4.60;;;3.93;;
12703;SDS011;6416;52.182;7.650;2023-04-15T18:01:07;5.67;;;4.13;;
12703;SDS011;6416;52.182;7.650;2023-04-15T18:03:33;5.60;;;4.27;;
12703;SDS011;6416;52.182;7.650;2023-04-15T18:05:58;5.53;;;4.40;;
12703;SDS011;6416;52.182;7.650;2023-04-15T18:08:24;6.40;;;4.40;;
12703;SDS011;6416;52.182;7.650;2023-04-15T18:10:49;4.57;;;3.63;;
12703;SDS011;6416;52.182;7.650;2023-04-15T18:13:15;5.93;;;4.47;;
12703;SDS011;6416;52.182;7.650;2023-04-15T18:15:40;4.93;;;3.90;;
12703;SDS011;6416;52.182;7.650;2023-04-15T18:18:06;5.50;;;4.17;;
12703;SDS011;6416;52.182;7.650;2023-04-15T18:20:31;5.37;;;4.40;;